sensor_id;sensor_type;location;lat;lon;timestamp;temperature;humidity
15298;DHT22;7750;48.796;9.026;2022-09-12T00:02:04;17.40;70.10
15298;DHT22;7750;48.796;9.026;2022-09-12T00:07:05;17.30;70.10
15298;DHT22;7750;48.796;9.026;2022-09-12T00:12:06;17.30;70.30
15298;DHT22;7750;48.796;9.026;2022-09-12T00:17:06;17.20;70.80
15298;DHT22;7750;48.796;9.026;2022-09-12T00:22:07;17.20;70.30
15298;DHT22;7750;48.796;9.026;2022-09-12T00:27:08;17.10;70.20
15298;DHT22;7750;48.796;9.026;2022-09-12T00:32:08;17.10;70.30
15298;DHT22;7750;48.796;9.026;2022-09-12T00:37:09;17.00;70.30
15298;DHT22;7750;48.796;9.026;2022-09-12T00:42:11;17.00;71.00
15298;DHT22;7750;48.796;9.026;2022-09-12T00:47:32;16.90;70.40
15298;DHT22;7750;48.796;9.026;2022-09-12T00:52:39;16.90;70.60
15298;DHT22;7750;48.796;9.026;2022-09-12T00:57:49;16.80;70.60
15298;DHT22;7750;48.796;9.026;2022-09-12T01:03:03;16.70;70.50
15298;DHT22;7750;48.796;9.026;2022-09-12T01:08:05;16.70;70.80
15298;DHT22;7750;48.796;9.026;2022-09-12T01:13:07;16.60;70.60
15298;DHT22;7750;48.796;9.026;2022-09-12T01:18:28;16.60;70.60
15298;DHT22;7750;48.796;9.026;2022-09-12T01:44:54;16.30;71.20
15298;DHT22;7750;48.796;9.026;2022-09-12T01:49:58;16.20;71.20
15298;DHT22;7750;48.796;9.026;2022-09-12T01:55:06;16.20;71.30
15298;DHT22;7750;48.796;9.026;2022-09-12T02:00:11;16.10;71.30
15298;DHT22;7750;48.796;9.026;2022-09-12T02:05:21;16.10;71.30
15298;DHT22;7750;48.796;9.026;2022-09-12T02:10:26;16.00;71.50
15298;DHT22;7750;48.796;9.026;2022-09-12T02:15:35;16.00;71.40
15298;DHT22;7750;48.796;9.026;2022-09-12T02:20:38;15.90;71.50
15298;DHT22;7750;48.796;9.026;2022-09-12T02:25:44;15.90;71.70
15298;DHT22;7750;48.796;9.026;2022-09-12T02:41:31;15.80;71.90
15298;DHT22;7750;48.796;9.026;2022-09-12T02:46:39;15.70;71.80
15298;DHT22;7750;48.796;9.026;2022-09-12T02:51:42;15.70;72.00
15298;DHT22;7750;48.796;9.026;2022-09-12T02:56:44;15.70;72.00
15298;DHT22;7750;48.796;9.026;2022-09-12T03:12:25;15.60;72.20
15298;DHT22;7750;48.796;9.026;2022-09-12T03:23:16;15.50;72.30
15298;DHT22;7750;48.796;9.026;2022-09-12T03:28:19;15.50;72.20
15298;DHT22;7750;48.796;9.026;2022-09-12T03:33:23;15.40;72.30
15298;DHT22;7750;48.796;9.026;2022-09-12T03:38:24;15.40;72.20
15298;DHT22;7750;48.796;9.026;2022-09-12T03:43:24;15.30;72.20
15298;DHT22;7750;48.796;9.026;2022-09-12T03:48:25;15.30;72.30
15298;DHT22;7750;48.796;9.026;2022-09-12T03:53:26;15.30;72.50
15298;DHT22;7750;48.796;9.026;2022-09-12T03:58:29;15.20;72.50
15298;DHT22;7750;48.796;9.026;2022-09-12T04:03:30;15.20;72.70
15298;DHT22;7750;48.796;9.026;2022-09-12T04:08:31;15.10;72.30
15298;DHT22;7750;48.796;9.026;2022-09-12T04:13:31;15.20;72.50
15298;DHT22;7750;48.796;9.026;2022-09-12T04:18:33;15.10;72.60
15298;DHT22;7750;48.796;9.026;2022-09-12T04:23:34;15.10;72.80
15298;DHT22;7750;48.796;9.026;2022-09-12T04:28:36;15.10;72.80
15298;DHT22;7750;48.796;9.026;2022-09-12T04:33:38;15.00;72.70
15298;DHT22;7750;48.796;9.026;2022-09-12T04:38:39;15.00;72.70
15298;DHT22;7750;48.796;9.026;2022-09-12T04:43:40;15.00;72.80
15298;DHT22;7750;48.796;9.026;2022-09-12T04:48:42;15.00;72.90
15298;DHT22;7750;48.796;9.026;2022-09-12T04:53:47;14.90;73.10
15298;DHT22;7750;48.796;9.026;2022-09-12T04:58:49;14.90;73.20
15298;DHT22;7750;48.796;9.026;2022-09-12T05:03:50;14.90;73.30
15298;DHT22;7750;48.796;9.026;2022-09-12T05:08:52;14.80;73.50
15298;DHT22;7750;48.796;9.026;2022-09-12T05:13:53;14.80;73.50
15298;DHT22;7750;48.796;9.026;2022-09-12T05:18:55;14.80;73.50
15298;DHT22;7750;48.796;9.026;2022-09-12T05:23:57;14.90;73.60
15298;DHT22;7750;48.796;9.026;2022-09-12T05:28:59;14.80;73.60
15298;DHT22;7750;48.796;9.026;2022-09-12T05:34:00;14.80;73.80
15298;DHT22;7750;48.796;9.026;2022-09-12T05:39:01;14.80;74.00
15298;DHT22;7750;48.796;9.026;2022-09-12T05:44:05;14.70;74.00
15298;DHT22;7750;48.796;9.026;2022-09-12T05:49:08;14.70;74.30
15298;DHT22;7750;48.796;9.026;2022-09-12T05:54:11;14.70;74.40
15298;DHT22;7750;48.796;9.026;2022-09-12T05:59:17;14.70;74.50
15298;DHT22;7750;48.796;9.026;2022-09-12T06:04:18;14.80;75.00
15298;DHT22;7750;48.796;9.026;2022-09-12T06:09:19;14.80;75.00
15298;DHT22;7750;48.796;9.026;2022-09-12T06:14:20;14.80;75.30
15298;DHT22;7750;48.796;9.026;2022-09-12T06:19:21;14.90;75.60
15298;DHT22;7750;48.796;9.026;2022-09-12T06:24:23;15.00;75.90
15298;DHT22;7750;48.796;9.026;2022-09-12T06:29:23;15.10;76.40
15298;DHT22;7750;48.796;9.026;2022-09-12T06:34:25;15.30;77.00
15298;DHT22;7750;48.796;9.026;2022-09-12T06:39:26;15.40;77.80
15298;DHT22;7750;48.796;9.026;2022-09-12T06:44:27;15.60;77.40
15298;DHT22;7750;48.796;9.026;2022-09-12T06:49:29;15.80;77.90
15298;DHT22;7750;48.796;9.026;2022-09-12T06:54:30;16.10;78.40
15298;DHT22;7750;48.796;9.026;2022-09-12T06:59:31;16.60;79.50
15298;DHT22;7750;48.796;9.026;2022-09-12T07:04:32;17.30;80.20
15298;DHT22;7750;48.796;9.026;2022-09-12T07:09:35;18.00;79.70
15298;DHT22;7750;48.796;9.026;2022-09-12T07:14:36;18.80;78.90
15298;DHT22;7750;48.796;9.026;2022-09-12T07:19:37;19.50;78.80
15298;DHT22;7750;48.796;9.026;2022-09-12T07:24:37;20.30;78.50
15298;DHT22;7750;48.796;9.026;2022-09-12T07:29:39;20.90;76.10
15298;DHT22;7750;48.796;9.026;2022-09-12T07:34:40;21.50;75.20
15298;DHT22;7750;48.796;9.026;2022-09-12T07:39:40;22.10;74.30
15298;DHT22;7750;48.796;9.026;2022-09-12T07:44:41;22.50;73.30
15298;DHT22;7750;48.796;9.026;2022-09-12T07:49:42;23.00;72.50
15298;DHT22;7750;48.796;9.026;2022-09-12T07:54:42;23.40;71.60
15298;DHT22;7750;48.796;9.026;2022-09-12T07:59:44;23.90;71.00
15298;DHT22;7750;48.796;9.026;2022-09-12T08:04:45;24.40;70.20
15298;DHT22;7750;48.796;9.026;2022-09-12T08:09:46;24.90;68.80
15298;DHT22;7750;48.796;9.026;2022-09-12T08:14:46;25.60;67.90
15298;DHT22;7750;48.796;9.026;2022-09-12T08:19:47;26.10;64.80
15298;DHT22;7750;48.796;9.026;2022-09-12T08:24:48;26.90;55.10
15298;DHT22;7750;48.796;9.026;2022-09-12T08:29:49;26.80;58.40
15298;DHT22;7750;48.796;9.026;2022-09-12T08:34:49;27.00;58.20
15298;DHT22;7750;48.796;9.026;2022-09-12T08:39:50;26.90;56.10
15298;DHT22;7750;48.796;9.026;2022-09-12T08:45:32;26.70;55.90
15298;DHT22;7750;48.796;9.026;2022-09-12T08:50:31;26.40;57.60
15298;DHT22;7750;48.796;9.026;2022-09-12T08:55:39;26.20;58.80
15298;DHT22;7750;48.796;9.026;2022-09-12T09:16:52;25.50;56.80
15298;DHT22;7750;48.796;9.026;2022-09-12T09:22:02;25.30;55.50
15298;DHT22;7750;48.796;9.026;2022-09-12T09:27:30;25.10;56.10
15298;DHT22;7750;48.796;9.026;2022-09-12T09:32:37;25.10;55.40
15298;DHT22;7750;48.796;9.026;2022-09-12T09:37:58;24.90;55.40
15298;DHT22;7750;48.796;9.026;2022-09-12T09:43:09;24.90;56.10
15298;DHT22;7750;48.796;9.026;2022-09-12T09:48:32;24.90;56.00
15298;DHT22;7750;48.796;9.026;2022-09-12T09:58:45;25.00;54.70
15298;DHT22;7750;48.796;9.026;2022-09-12T10:03:51;25.10;53.00
15298;DHT22;7750;48.796;9.026;2022-09-12T10:09:17;25.10;52.80
15298;DHT22;7750;48.796;9.026;2022-09-12T10:19:36;25.20;52.40
15298;DHT22;7750;48.796;9.026;2022-09-12T10:24:49;25.20;53.80
15298;DHT22;7750;48.796;9.026;2022-09-12T10:30:05;25.40;53.00
15298;DHT22;7750;48.796;9.026;2022-09-12T10:35:28;25.50;52.90
15298;DHT22;7750;48.796;9.026;2022-09-12T10:40:41;25.70;52.60
15298;DHT22;7750;48.796;9.026;2022-09-12T10:45:43;25.90;53.20
15298;DHT22;7750;48.796;9.026;2022-09-12T10:50:43;26.00;53.40
15298;DHT22;7750;48.796;9.026;2022-09-12T10:56:02;26.30;53.60
15298;DHT22;7750;48.796;9.026;2022-09-12T11:01:28;26.50;52.40
15298;DHT22;7750;48.796;9.026;2022-09-12T11:33:37;27.60;48.80
15298;DHT22;7750;48.796;9.026;2022-09-12T11:38:47;27.70;47.70
15298;DHT22;7750;48.796;9.026;2022-09-12T11:44:09;27.80;48.40
15298;DHT22;7750;48.796;9.026;2022-09-12T12:05:51;28.70;47.40
15298;DHT22;7750;48.796;9.026;2022-09-12T12:10:39;28.90;48.20
15298;DHT22;7750;48.796;9.026;2022-09-12T12:15:49;29.10;46.10
15298;DHT22;7750;48.796;9.026;2022-09-12T12:20:51;29.30;46.30
15298;DHT22;7750;48.796;9.026;2022-09-12T12:25:58;29.40;46.40
15298;DHT22;7750;48.796;9.026;2022-09-12T12:31:00;29.50;46.30
15298;DHT22;7750;48.796;9.026;2022-09-12T12:36:04;29.70;46.30
15298;DHT22;7750;48.796;9.026;2022-09-12T12:46:19;29.90;43.40
15298;DHT22;7750;48.796;9.026;2022-09-12T12:51:32;30.00;43.40
15298;DHT22;7750;48.796;9.026;2022-09-12T13:01:53;30.00;43.40
15298;DHT22;7750;48.796;9.026;2022-09-12T13:07:26;30.10;42.60
15298;DHT22;7750;48.796;9.026;2022-09-12T13:12:31;30.20;43.50
15298;DHT22;7750;48.796;9.026;2022-09-12T13:17:43;30.30;43.70
15298;DHT22;7750;48.796;9.026;2022-09-12T13:22:47;30.50;41.50
15298;DHT22;7750;48.796;9.026;2022-09-12T13:33:16;30.80;43.00
15298;DHT22;7750;48.796;9.026;2022-09-12T13:43:35;31.10;43.10
15298;DHT22;7750;48.796;9.026;2022-09-12T13:48:38;31.50;42.30
15298;DHT22;7750;48.796;9.026;2022-09-12T13:53:43;31.70;42.10
15298;DHT22;7750;48.796;9.026;2022-09-12T13:58:59;32.00;42.10
15298;DHT22;7750;48.796;9.026;2022-09-12T14:04:09;32.20;40.90
15298;DHT22;7750;48.796;9.026;2022-09-12T14:09:37;32.20;39.80
15298;DHT22;7750;48.796;9.026;2022-09-12T14:14:39;32.10;39.60
15298;DHT22;7750;48.796;9.026;2022-09-12T14:19:43;31.90;39.70
15298;DHT22;7750;48.796;9.026;2022-09-12T14:24:48;31.90;39.80
15298;DHT22;7750;48.796;9.026;2022-09-12T14:30:05;31.80;38.40
15298;DHT22;7750;48.796;9.026;2022-09-12T14:35:17;31.70;38.90
15298;DHT22;7750;48.796;9.026;2022-09-12T14:40:21;31.70;39.00
15298;DHT22;7750;48.796;9.026;2022-09-12T14:45:26;31.70;39.10
15298;DHT22;7750;48.796;9.026;2022-09-12T14:50:31;31.70;39.20
15298;DHT22;7750;48.796;9.026;2022-09-12T14:55:45;31.70;39.00
15298;DHT22;7750;48.796;9.026;2022-09-12T15:05:58;31.70;38.20
15298;DHT22;7750;48.796;9.026;2022-09-12T15:10:59;31.70;38.10
15298;DHT22;7750;48.796;9.026;2022-09-12T15:16:00;31.60;38.20
15298;DHT22;7750;48.796;9.026;2022-09-12T15:21:04;31.50;38.40
15298;DHT22;7750;48.796;9.026;2022-09-12T15:26:07;31.50;38.20
15298;DHT22;7750;48.796;9.026;2022-09-12T15:31:22;31.50;39.30
15298;DHT22;7750;48.796;9.026;2022-09-12T15:36:24;31.60;38.50
15298;DHT22;7750;48.796;9.026;2022-09-12T15:41:35;31.60;38.90
15298;DHT22;7750;48.796;9.026;2022-09-12T15:46:36;31.60;38.50
15298;DHT22;7750;48.796;9.026;2022-09-12T15:51:37;31.70;38.10
15298;DHT22;7750;48.796;9.026;2022-09-12T15:56:38;31.80;38.10
15298;DHT22;7750;48.796;9.026;2022-09-12T16:01:38;31.80;38.10
15298;DHT22;7750;48.796;9.026;2022-09-12T16:06:39;31.90;38.20
15298;DHT22;7750;48.796;9.026;2022-09-12T16:11:55;31.90;37.50
15298;DHT22;7750;48.796;9.026;2022-09-12T16:34:44;31.40;36.40
15298;DHT22;7750;48.796;9.026;2022-09-12T16:39:45;31.10;37.50
15298;DHT22;7750;48.796;9.026;2022-09-12T16:44:48;31.60;37.20
15298;DHT22;7750;48.796;9.026;2022-09-12T16:49:48;31.20;37.90
15298;DHT22;7750;48.796;9.026;2022-09-12T16:54:50;30.90;39.60
15298;DHT22;7750;48.796;9.026;2022-09-12T16:59:51;30.60;40.10
15298;DHT22;7750;48.796;9.026;2022-09-12T17:04:51;30.40;40.10
15298;DHT22;7750;48.796;9.026;2022-09-12T17:09:52;30.20;41.10
15298;DHT22;7750;48.796;9.026;2022-09-12T17:14:52;30.00;41.20
15298;DHT22;7750;48.796;9.026;2022-09-12T17:19:53;29.80;41.40
15298;DHT22;7750;48.796;9.026;2022-09-12T17:24:54;29.50;41.90
15298;DHT22;7750;48.796;9.026;2022-09-12T17:29:54;29.40;42.00
15298;DHT22;7750;48.796;9.026;2022-09-12T17:34:55;29.10;42.20
15298;DHT22;7750;48.796;9.026;2022-09-12T17:39:56;28.80;42.50
15298;DHT22;7750;48.796;9.026;2022-09-12T17:44:57;28.60;42.80
15298;DHT22;7750;48.796;9.026;2022-09-12T17:49:58;28.30;43.00
15298;DHT22;7750;48.796;9.026;2022-09-12T17:54:59;28.00;43.30
15298;DHT22;7750;48.796;9.026;2022-09-12T18:00:00;27.80;43.50
15298;DHT22;7750;48.796;9.026;2022-09-12T18:05:00;27.50;43.60
15298;DHT22;7750;48.796;9.026;2022-09-12T18:10:04;27.20;44.00
15298;DHT22;7750;48.796;9.026;2022-09-12T18:15:06;27.00;44.30
15298;DHT22;7750;48.796;9.026;2022-09-12T18:20:07;27.30;45.60
15298;DHT22;7750;48.796;9.026;2022-09-12T18:25:08;26.90;44.90
15298;DHT22;7750;48.796;9.026;2022-09-12T18:30:09;26.60;45.00
15298;DHT22;7750;48.796;9.026;2022-09-12T18:35:10;26.30;45.20
15298;DHT22;7750;48.796;9.026;2022-09-12T18:40:11;26.20;45.40
15298;DHT22;7750;48.796;9.026;2022-09-12T18:45:11;25.90;45.60
15298;DHT22;7750;48.796;9.026;2022-09-12T18:50:12;25.70;45.90
15298;DHT22;7750;48.796;9.026;2022-09-12T18:55:13;25.50;46.20
15298;DHT22;7750;48.796;9.026;2022-09-12T19:00:13;25.30;46.50
15298;DHT22;7750;48.796;9.026;2022-09-12T19:05:14;25.10;46.60
15298;DHT22;7750;48.796;9.026;2022-09-12T19:10:15;24.90;46.90
15298;DHT22;7750;48.796;9.026;2022-09-12T19:15:15;24.70;46.80
15298;DHT22;7750;48.796;9.026;2022-09-12T19:20:16;24.50;47.10
15298;DHT22;7750;48.796;9.026;2022-09-12T19:25:17;24.40;47.40
15298;DHT22;7750;48.796;9.026;2022-09-12T19:30:18;24.20;47.70
15298;DHT22;7750;48.796;9.026;2022-09-12T19:35:18;24.10;48.80
15298;DHT22;7750;48.796;9.026;2022-09-12T19:40:19;23.90;48.80
15298;DHT22;7750;48.796;9.026;2022-09-12T19:45:19;23.70;49.00
15298;DHT22;7750;48.796;9.026;2022-09-12T19:50:20;23.60;49.30
15298;DHT22;7750;48.796;9.026;2022-09-12T19:55:21;23.40;49.70
15298;DHT22;7750;48.796;9.026;2022-09-12T20:00:21;23.30;49.90
15298;DHT22;7750;48.796;9.026;2022-09-12T20:05:22;23.20;50.20
15298;DHT22;7750;48.796;9.026;2022-09-12T20:10:23;23.00;50.50
15298;DHT22;7750;48.796;9.026;2022-09-12T20:15:23;22.90;50.80
15298;DHT22;7750;48.796;9.026;2022-09-12T20:20:24;22.70;51.50
15298;DHT22;7750;48.796;9.026;2022-09-12T20:25:25;22.50;51.30
15298;DHT22;7750;48.796;9.026;2022-09-12T20:30:26;22.40;51.60
15298;DHT22;7750;48.796;9.026;2022-09-12T20:35:27;22.30;51.90
15298;DHT22;7750;48.796;9.026;2022-09-12T20:40:27;22.20;52.10
15298;DHT22;7750;48.796;9.026;2022-09-12T20:45:28;22.10;52.30
15298;DHT22;7750;48.796;9.026;2022-09-12T20:50:28;22.00;52.50
15298;DHT22;7750;48.796;9.026;2022-09-12T20:55:29;21.80;52.70
15298;DHT22;7750;48.796;9.026;2022-09-12T21:00:30;21.70;52.90
15298;DHT22;7750;48.796;9.026;2022-09-12T21:05:30;21.60;53.10
15298;DHT22;7750;48.796;9.026;2022-09-12T21:10:31;21.50;53.40
15298;DHT22;7750;48.796;9.026;2022-09-12T21:15:31;21.40;53.80
15298;DHT22;7750;48.796;9.026;2022-09-12T21:20:32;21.20;53.90
15298;DHT22;7750;48.796;9.026;2022-09-12T21:25:33;21.20;54.20
15298;DHT22;7750;48.796;9.026;2022-09-12T21:30:33;21.10;54.30
15298;DHT22;7750;48.796;9.026;2022-09-12T21:35:35;21.00;54.70
15298;DHT22;7750;48.796;9.026;2022-09-12T21:40:35;20.90;54.80
15298;DHT22;7750;48.796;9.026;2022-09-12T21:45:36;20.80;55.20
15298;DHT22;7750;48.796;9.026;2022-09-12T21:50:37;20.80;55.00
15298;DHT22;7750;48.796;9.026;2022-09-12T21:55:37;20.80;55.20
15298;DHT22;7750;48.796;9.026;2022-09-12T22:00:40;20.80;55.40
15298;DHT22;7750;48.796;9.026;2022-09-12T22:05:40;20.80;55.40
15298;DHT22;7750;48.796;9.026;2022-09-12T22:10:42;20.90;55.50
15298;DHT22;7750;48.796;9.026;2022-09-12T22:15:48;21.00;55.50
15298;DHT22;7750;48.796;9.026;2022-09-12T22:20:49;21.10;55.70
15298;DHT22;7750;48.796;9.026;2022-09-12T22:25:58;21.10;55.50
15298;DHT22;7750;48.796;9.026;2022-09-12T22:30:59;21.20;55.50
15298;DHT22;7750;48.796;9.026;2022-09-12T22:36:00;21.20;55.50
15298;DHT22;7750;48.796;9.026;2022-09-12T22:41:06;21.30;55.60
15298;DHT22;7750;48.796;9.026;2022-09-12T22:46:08;21.30;55.70
15298;DHT22;7750;48.796;9.026;2022-09-12T22:51:10;21.40;55.70
15298;DHT22;7750;48.796;9.026;2022-09-12T22:56:11;21.40;55.70
15298;DHT22;7750;48.796;9.026;2022-09-12T23:01:12;21.40;55.90
15298;DHT22;7750;48.796;9.026;2022-09-12T23:06:13;21.30;55.90
15298;DHT22;7750;48.796;9.026;2022-09-12T23:11:16;21.20;56.40
15298;DHT22;7750;48.796;9.026;2022-09-12T23:16:22;21.10;56.10
15298;DHT22;7750;48.796;9.026;2022-09-12T23:21:24;21.00;56.60
15298;DHT22;7750;48.796;9.026;2022-09-12T23:26:25;20.80;56.30
15298;DHT22;7750;48.796;9.026;2022-09-12T23:31:29;20.70;56.70
15298;DHT22;7750;48.796;9.026;2022-09-12T23:36:30;20.60;56.80
15298;DHT22;7750;48.796;9.026;2022-09-12T23:41:31;20.60;56.90
15298;DHT22;7750;48.796;9.026;2022-09-12T23:46:32;20.60;57.20
15298;DHT22;7750;48.796;9.026;2022-09-12T23:51:32;20.50;57.70
15298;DHT22;7750;48.796;9.026;2022-09-12T23:56:33;20.50;57.70
